createdAt,value
2024-03-06T00:00:40.376Z,25.35
2024-03-06T00:03:10.545Z,27.70
2024-03-06T00:05:37.137Z,25.02
2024-03-06T00:08:05.088Z,22.85
2024-03-06T00:10:31.772Z,29.70
2024-03-06T00:12:58.359Z,31.58
2024-03-06T00:15:25.254Z,27.13
2024-03-06T00:17:51.841Z,29.08
2024-03-06T00:20:19.192Z,18.35
2024-03-06T00:22:45.856Z,22.40
2024-03-06T00:25:12.656Z,25.58
2024-03-06T00:27:40.658Z,31.42
2024-03-06T00:30:08.051Z,34.55
2024-03-06T00:32:34.720Z,27.67
2024-03-06T00:35:01.294Z,31.10
2024-03-06T00:37:27.850Z,30.55
2024-03-06T00:39:56.662Z,29.42
2024-03-06T00:42:23.176Z,31.00
2024-03-06T00:44:49.705Z,30.13
2024-03-06T00:47:16.249Z,25.83
2024-03-06T00:49:43.377Z,23.13
2024-03-06T00:52:10.563Z,25.70
2024-03-06T00:54:37.203Z,28.70
2024-03-06T00:57:03.864Z,25.70
2024-03-06T00:59:30.506Z,30.75
2024-03-06T01:01:57.588Z,24.02
2024-03-06T01:04:24.511Z,22.88
2024-03-06T01:06:51.275Z,19.30
2024-03-06T01:09:17.816Z,19.85
2024-03-06T01:11:44.353Z,16.45
2024-03-06T01:14:10.951Z,17.40
2024-03-06T01:16:37.942Z,18.92
2024-03-06T01:19:04.541Z,14.95
2024-03-06T01:21:31.301Z,30.75
2024-03-06T01:23:57.836Z,20.33
2024-03-06T01:26:24.360Z,22.85
2024-03-06T01:28:50.900Z,25.17
2024-03-06T01:31:17.471Z,23.63
2024-03-06T01:33:44.014Z,24.58
2024-03-06T01:36:11.069Z,22.02
2024-03-06T01:38:39.498Z,19.20
2024-03-06T01:41:06.266Z,26.55
2024-03-06T01:43:38.077Z,23.67
2024-03-06T01:48:32.509Z,26.27
2024-03-06T01:51:01.213Z,31.85
2024-03-06T01:53:29.300Z,26.15
2024-03-06T01:55:56.147Z,29.85
2024-03-06T01:58:23.004Z,24.95
2024-03-06T02:00:50.559Z,29.40
2024-03-06T02:03:18.576Z,27.80
2024-03-06T02:05:45.109Z,29.30
2024-03-06T02:08:11.722Z,31.02
2024-03-06T02:10:38.387Z,26.88
2024-03-06T02:13:05.072Z,24.92
2024-03-06T02:15:31.797Z,28.38
2024-03-06T02:17:59.160Z,30.58
2024-03-06T02:20:26.574Z,28.65
2024-03-06T02:22:53.369Z,27.00
2024-03-06T02:25:20.811Z,29.13
2024-03-06T02:27:49.509Z,30.20
2024-03-06T02:30:16.400Z,28.35
2024-03-06T02:32:45.172Z,26.58
2024-03-06T02:35:11.970Z,28.95
2024-03-06T02:37:39.546Z,28.55
2024-03-06T02:40:08.323Z,28.73
2024-03-06T02:42:34.898Z,31.63
2024-03-06T02:45:01.494Z,29.80
2024-03-06T02:47:28.084Z,30.35
2024-03-06T02:49:54.661Z,32.13
2024-03-06T02:52:21.603Z,34.38
2024-03-06T02:54:48.101Z,36.85
2024-03-06T02:57:14.610Z,34.40
2024-03-06T02:59:41.772Z,38.35
2024-03-06T03:02:08.441Z,39.47
2024-03-06T03:04:36.109Z,39.47
2024-03-06T03:07:02.715Z,44.13
2024-03-06T03:09:29.294Z,32.42
2024-03-06T03:11:57.019Z,42.80
2024-03-06T03:14:23.649Z,34.97
2024-03-06T03:16:51.287Z,33.70
2024-03-06T03:19:17.866Z,39.90
2024-03-06T03:21:45.605Z,38.72
2024-03-06T03:24:12.205Z,36.72
2024-03-06T03:26:38.688Z,34.63
2024-03-06T03:29:05.310Z,34.70
2024-03-06T03:31:32.364Z,30.25
2024-03-06T03:33:59.209Z,33.35
2024-03-06T03:36:26.049Z,31.13
2024-03-06T03:38:52.581Z,33.35
2024-03-06T03:41:19.194Z,35.05
2024-03-06T03:43:46.435Z,30.55
2024-03-06T03:46:14.389Z,33.35
2024-03-06T03:48:40.941Z,31.60
2024-03-06T03:51:08.469Z,34.80
2024-03-06T03:53:35.532Z,30.48
2024-03-06T03:56:02.441Z,29.15
2024-03-06T03:58:29.131Z,29.40
2024-03-06T04:00:57.097Z,34.00
2024-03-06T04:03:25.061Z,34.30
2024-03-06T04:05:52.248Z,29.55
2024-03-06T04:08:18.855Z,37.88
2024-03-06T04:10:48.339Z,31.95
2024-03-06T04:13:16.211Z,36.13
2024-03-06T04:15:42.847Z,33.10
2024-03-06T04:18:09.482Z,39.60
2024-03-06T04:20:38.492Z,32.72
2024-03-06T04:23:05.225Z,30.55
2024-03-06T04:25:31.895Z,38.55
2024-03-06T04:27:58.514Z,34.15
2024-03-06T04:30:26.026Z,31.42
2024-03-06T04:32:52.638Z,27.77
2024-03-06T04:35:19.461Z,32.72
2024-03-06T04:37:46.442Z,28.30
2024-03-06T04:40:16.346Z,32.50
2024-03-06T04:42:42.930Z,32.03
2024-03-06T04:45:16.640Z,34.78
2024-03-06T04:47:43.629Z,35.17
2024-03-06T04:50:11.600Z,33.63
2024-03-06T04:52:39.186Z,31.25
2024-03-06T04:55:06.320Z,27.17
2024-03-06T04:57:32.827Z,31.42
2024-03-06T05:00:07.107Z,38.05
2024-03-06T06:00:12.749Z,39.88
2024-03-06T06:02:39.547Z,44.37
2024-03-06T06:05:21.433Z,38.53
2024-03-06T06:07:50.326Z,42.90
2024-03-06T06:10:17.481Z,45.13
2024-03-06T06:12:46.100Z,45.90
2024-03-06T06:15:19.774Z,50.63
2024-03-06T06:17:47.539Z,43.08
2024-03-06T06:20:19.537Z,44.35
2024-03-06T06:22:46.494Z,48.15
2024-03-06T06:25:13.754Z,45.33
2024-03-06T06:27:40.408Z,44.53
2024-03-06T06:30:08.332Z,43.75
2024-03-06T06:32:35.652Z,43.50
2024-03-06T06:35:02.524Z,39.60
2024-03-06T06:37:29.077Z,40.13
2024-03-06T06:39:55.642Z,38.38
2024-03-06T06:42:22.333Z,45.08
2024-03-06T06:44:48.907Z,35.78
2024-03-06T06:47:15.541Z,35.25
2024-03-06T06:49:42.084Z,46.97
2024-03-06T06:52:09.049Z,41.15
2024-03-06T06:54:35.688Z,40.28
2024-03-06T06:57:02.289Z,42.95
2024-03-06T06:59:29.726Z,40.67
2024-03-06T07:01:56.878Z,45.92
2024-03-06T07:04:25.557Z,45.63
2024-03-06T07:06:52.128Z,43.60
2024-03-06T07:09:19.645Z,43.28
2024-03-06T07:11:46.470Z,47.17
2024-03-06T07:14:13.880Z,43.63
2024-03-06T07:16:44.497Z,41.60
2024-03-06T07:19:11.334Z,39.90
2024-03-06T07:21:38.838Z,45.25
2024-03-06T07:24:05.874Z,39.15
2024-03-06T07:26:36.570Z,41.42
2024-03-06T07:29:03.925Z,38.50
2024-03-06T07:31:30.792Z,43.95
2024-03-06T07:33:57.410Z,36.53
2024-03-06T07:36:23.982Z,42.55
2024-03-06T07:38:50.515Z,40.80
2024-03-06T07:41:17.416Z,41.17
2024-03-06T07:43:45.213Z,38.40
2024-03-06T07:46:12.472Z,40.17
2024-03-06T07:48:39.714Z,42.10
2024-03-06T07:51:06.620Z,43.72
2024-03-06T07:53:33.228Z,37.83
2024-03-06T07:55:59.938Z,41.97
2024-03-06T07:58:26.523Z,41.00
2024-03-06T08:00:57.573Z,34.40
2024-03-06T08:03:25.883Z,48.25
2024-03-06T08:05:54.056Z,42.38
2024-03-06T08:08:20.878Z,40.78
2024-03-06T08:10:47.597Z,37.08
2024-03-06T08:13:14.902Z,30.98
2024-03-06T08:15:56.761Z,36.70
2024-03-06T08:18:23.383Z,34.60
2024-03-06T08:20:50.038Z,39.45
2024-03-06T08:23:16.723Z,45.22
2024-03-06T08:25:43.363Z,44.33
2024-03-06T08:28:11.135Z,43.35
2024-03-06T08:30:37.778Z,43.55
2024-03-06T08:33:04.678Z,44.10
2024-03-06T08:35:31.541Z,49.47
2024-03-06T08:37:58.159Z,44.60
2024-03-06T08:40:26.986Z,46.75
2024-03-06T08:42:53.496Z,35.38
2024-03-06T08:45:20.258Z,36.67
2024-03-06T08:47:47.953Z,39.22
2024-03-06T08:50:14.972Z,42.90
2024-03-06T08:52:42.902Z,40.60
2024-03-06T08:55:09.781Z,40.63
2024-03-06T08:57:36.925Z,46.28
2024-03-06T09:00:12.992Z,42.30
2024-03-06T09:02:40.143Z,34.60
2024-03-06T09:05:07.563Z,37.65
2024-03-06T09:07:38.349Z,37.70
2024-03-06T09:10:06.844Z,36.28
2024-03-06T09:12:33.648Z,40.15
2024-03-06T09:15:01.481Z,35.95
2024-03-06T09:17:28.151Z,37.30
2024-03-06T09:20:04.191Z,39.70
2024-03-06T09:22:36.097Z,42.92
2024-03-06T09:25:03.014Z,51.25
2024-03-06T09:27:29.533Z,39.72
2024-03-06T09:29:57.489Z,49.67
2024-03-06T09:32:24.565Z,45.35
2024-03-06T09:34:51.266Z,48.58
2024-03-06T09:37:17.801Z,41.03
2024-03-06T09:39:47.841Z,45.85
2024-03-06T09:42:14.769Z,47.00
2024-03-06T09:44:41.880Z,49.00
2024-03-06T09:47:08.652Z,46.80
2024-03-06T09:49:38.148Z,42.17
2024-03-06T09:52:05.209Z,38.47
2024-03-06T09:54:31.862Z,48.92
2024-03-06T09:57:00.263Z,45.50
2024-03-06T09:59:28.360Z,48.30
2024-03-06T10:01:56.093Z,44.78
2024-03-06T10:04:23.615Z,47.50
2024-03-06T10:06:50.636Z,44.13
2024-03-06T10:09:20.478Z,43.55
2024-03-06T10:11:47.168Z,44.42
2024-03-06T10:14:13.913Z,51.40
2024-03-06T10:16:55.628Z,50.90
2024-03-06T10:19:23.289Z,49.72
2024-03-06T10:21:50.339Z,46.97
2024-03-06T10:24:25.117Z,45.75
2024-03-06T10:26:52.772Z,43.90
2024-03-06T10:29:19.832Z,43.35
2024-03-06T10:31:50.284Z,42.55
2024-03-06T10:34:17.369Z,53.78
2024-03-06T10:39:12.421Z,48.55
2024-03-06T10:41:41.581Z,50.78
2024-03-06T10:44:12.013Z,45.08
2024-03-06T10:46:38.939Z,45.88
2024-03-06T10:49:05.571Z,45.95
2024-03-06T10:51:33.838Z,48.15
2024-03-06T10:54:01.351Z,46.20
2024-03-06T10:56:28.061Z,53.75
2024-03-06T10:58:56.327Z,49.53
2024-03-06T11:01:23.888Z,42.80
2024-03-06T11:03:50.956Z,38.85
2024-03-06T11:06:19.178Z,43.17
2024-03-06T11:08:45.836Z,42.28
2024-03-06T11:11:25.642Z,35.80
2024-03-06T11:13:58.873Z,38.25
2024-03-06T11:21:36.356Z,30.50
2024-03-06T11:34:31.986Z,36.35
2024-03-06T11:36:58.757Z,34.65
2024-03-06T11:39:25.604Z,30.50
2024-03-06T11:41:52.423Z,35.10
2024-03-06T11:44:22.244Z,33.42
2024-03-06T11:47:18.581Z,29.80
2024-03-06T11:49:45.469Z,35.33
2024-03-06T11:52:11.998Z,28.77
2024-03-06T11:54:38.743Z,31.75
2024-03-06T11:59:41.220Z,25.70
2024-03-06T12:02:08.006Z,26.95
2024-03-06T12:14:36.252Z,17.85
2024-03-06T12:17:06.109Z,19.05
2024-03-06T12:32:00.887Z,17.38
2024-03-06T12:36:54.502Z,15.32
2024-03-06T12:39:24.611Z,15.43
2024-03-06T12:44:20.260Z,22.00
2024-03-06T12:49:13.760Z,19.25
2024-03-06T12:54:09.776Z,13.27
2024-03-06T12:56:37.408Z,14.77
2024-03-06T12:59:04.261Z,16.58
2024-03-06T13:01:31.504Z,16.35
2024-03-06T13:04:05.546Z,14.25
2024-03-06T13:06:33.648Z,19.10
2024-03-06T13:09:00.652Z,13.27
2024-03-06T13:11:27.598Z,18.95
2024-03-06T13:13:54.639Z,24.65
2024-03-06T13:16:22.509Z,17.65
2024-03-06T13:18:49.733Z,14.68
2024-03-06T13:21:16.528Z,17.92
2024-03-06T13:23:43.175Z,21.52
2024-03-06T13:26:09.840Z,20.73
2024-03-06T13:28:36.382Z,16.27
2024-03-06T13:31:03.180Z,17.33
2024-03-06T13:33:29.794Z,13.80
2024-03-06T13:35:56.977Z,15.18
2024-03-06T13:38:23.733Z,16.42
2024-03-06T13:40:50.349Z,15.35
2024-03-06T13:43:16.979Z,14.32
2024-03-06T13:45:49.904Z,15.15
2024-03-06T13:48:20.224Z,17.38
2024-03-06T13:50:47.517Z,10.95
2024-03-06T13:53:14.328Z,12.02
2024-03-06T13:55:41.567Z,19.80
2024-03-06T13:58:08.267Z,13.27
2024-03-06T14:00:36.379Z,15.45
2024-03-06T14:03:03.005Z,18.85
2024-03-06T14:05:30.134Z,22.55
2024-03-06T14:07:57.299Z,17.27
2024-03-06T14:17:47.924Z,13.95
2024-03-06T14:25:10.395Z,16.60
2024-03-06T14:27:37.399Z,18.27
2024-03-06T14:30:08.520Z,24.35
2024-03-06T14:32:35.527Z,19.73
2024-03-06T14:37:29.683Z,24.95
2024-03-06T14:39:56.259Z,19.90
2024-03-06T14:42:22.768Z,21.25
2024-03-06T14:44:49.870Z,21.30
2024-03-06T14:47:16.523Z,25.85
2024-03-06T14:49:43.733Z,18.85
2024-03-06T14:52:10.326Z,20.65
2024-03-06T14:54:36.846Z,25.65
2024-03-06T14:57:03.858Z,13.98
2024-03-06T14:59:31.109Z,13.38
2024-03-06T15:01:57.650Z,16.48
2024-03-06T15:04:24.211Z,22.45
2024-03-06T15:06:53.601Z,20.13
2024-03-06T15:09:24.414Z,17.50
2024-03-06T15:11:53.099Z,19.40
2024-03-06T15:14:20.453Z,18.23
2024-03-06T15:16:47.091Z,15.48
2024-03-06T15:19:13.643Z,18.67
2024-03-06T15:21:40.218Z,18.88
2024-03-06T15:24:07.123Z,17.90
2024-03-06T15:26:33.779Z,26.20
2024-03-06T15:29:01.068Z,25.23
2024-03-06T15:31:27.750Z,22.13
2024-03-06T15:34:02.015Z,19.80
2024-03-06T15:36:28.796Z,23.08
2024-03-06T15:38:58.499Z,21.23
2024-03-06T15:41:25.406Z,23.75
2024-03-06T15:43:52.026Z,19.00
2024-03-06T15:46:18.637Z,39.58
2024-03-06T15:48:45.227Z,22.50
2024-03-06T15:51:11.840Z,28.33
2024-03-06T15:53:38.471Z,21.23
2024-03-06T15:56:05.347Z,28.10
2024-03-06T15:58:31.887Z,28.83
2024-03-06T16:01:01.256Z,19.20
2024-03-06T16:03:29.063Z,28.65
2024-03-06T16:06:02.787Z,25.88
2024-03-06T16:08:38.408Z,25.92
2024-03-06T16:11:05.145Z,27.73
2024-03-06T16:13:31.711Z,30.42
2024-03-06T16:15:58.422Z,28.90
2024-03-06T16:18:25.068Z,21.02
2024-03-06T16:20:51.770Z,27.58
2024-03-06T16:23:18.308Z,23.25
2024-03-06T16:25:45.228Z,24.15
2024-03-06T16:28:11.845Z,21.52
2024-03-06T16:30:38.383Z,26.02
2024-03-06T16:33:04.996Z,26.30
2024-03-06T16:35:33.254Z,30.55
2024-03-06T16:37:59.848Z,23.50
2024-03-06T16:40:26.371Z,33.28
2024-03-06T16:42:52.981Z,31.98
2024-03-06T16:45:19.625Z,32.70
2024-03-06T16:47:46.280Z,40.10
2024-03-06T16:50:13.256Z,30.10
2024-03-06T16:52:40.261Z,36.10
2024-03-06T16:55:07.411Z,33.05
2024-03-06T16:57:33.995Z,35.00
2024-03-06T17:00:00.698Z,36.17
2024-03-06T17:02:27.348Z,33.15
2024-03-06T17:04:53.892Z,40.55
2024-03-06T17:07:20.439Z,37.15
2024-03-06T17:09:46.992Z,32.92
2024-03-06T17:12:13.592Z,28.63
2024-03-06T17:14:40.328Z,33.80
2024-03-06T17:17:08.167Z,35.17
2024-03-06T17:19:34.752Z,26.67
2024-03-06T17:22:04.074Z,35.67
2024-03-06T17:24:33.227Z,31.25
2024-03-06T17:26:59.823Z,39.55
2024-03-06T17:29:26.343Z,35.20
2024-03-06T17:31:52.871Z,36.60
2024-03-06T17:34:19.975Z,35.67
2024-03-06T17:36:47.748Z,33.45
2024-03-06T17:39:16.598Z,33.75
2024-03-06T17:41:45.476Z,35.85
2024-03-06T17:44:13.179Z,42.45
2024-03-06T17:46:39.715Z,38.75
2024-03-06T17:49:06.254Z,33.13
2024-03-06T17:51:33.618Z,41.88
2024-03-06T17:54:00.149Z,37.38
2024-03-06T17:56:26.755Z,40.00
2024-03-06T17:58:53.746Z,47.92
2024-03-06T18:01:26.389Z,51.33
2024-03-06T18:03:54.865Z,46.60
2024-03-06T18:06:22.339Z,43.63
2024-03-06T18:08:49.568Z,54.33
2024-03-06T18:11:16.202Z,48.63
2024-03-06T18:13:42.800Z,42.63
2024-03-06T18:16:10.817Z,47.65
2024-03-06T18:18:37.885Z,39.63
2024-03-06T18:21:05.800Z,32.35
2024-03-06T18:23:32.541Z,35.53
2024-03-06T18:25:59.288Z,46.22
2024-03-06T18:28:26.214Z,43.00
2024-03-06T18:30:52.738Z,36.40
2024-03-06T18:33:19.667Z,39.70
2024-03-06T18:35:46.278Z,36.22
2024-03-06T18:38:12.935Z,46.22
2024-03-06T18:40:39.528Z,44.70
2024-03-06T18:43:06.051Z,37.65
2024-03-06T18:45:32.873Z,33.25
2024-03-06T18:48:00.011Z,39.90
2024-03-06T18:50:28.161Z,38.15
2024-03-06T18:52:55.917Z,35.40
2024-03-06T18:55:22.469Z,38.90
2024-03-06T18:57:48.981Z,38.13
2024-03-06T19:00:15.939Z,42.83
2024-03-06T19:02:42.551Z,42.47
2024-03-06T19:05:10.691Z,42.97
2024-03-06T19:07:38.807Z,39.38
2024-03-06T19:10:06.946Z,47.03
2024-03-06T19:12:33.589Z,35.50
2024-03-06T19:15:00.190Z,31.60
2024-03-06T19:17:26.833Z,36.15
2024-03-06T19:19:54.185Z,43.83
2024-03-06T19:22:20.762Z,40.40
2024-03-06T19:24:48.383Z,40.20
2024-03-06T19:27:14.921Z,42.35
2024-03-06T19:29:41.576Z,41.08
2024-03-06T19:32:11.539Z,41.75
2024-03-06T19:34:38.287Z,40.30
2024-03-06T19:37:04.956Z,40.75
2024-03-06T19:39:32.280Z,38.42
2024-03-06T19:41:59.498Z,38.85
2024-03-06T19:44:28.074Z,46.53
2024-03-06T19:46:54.744Z,36.28
2024-03-06T19:49:21.900Z,40.63
2024-03-06T19:51:48.466Z,44.15
2024-03-06T19:54:15.019Z,39.38
2024-03-06T19:56:41.674Z,48.85
2024-03-06T19:59:08.949Z,42.38
2024-03-06T20:01:35.792Z,47.88
2024-03-06T20:04:02.601Z,44.17
2024-03-06T20:06:31.927Z,41.55
2024-03-06T20:08:59.530Z,45.63
2024-03-06T20:11:27.394Z,47.60
2024-03-06T20:13:54.372Z,46.70
2024-03-06T20:16:21.254Z,44.53
2024-03-06T20:18:47.923Z,46.05
2024-03-06T20:21:14.486Z,38.78
2024-03-06T20:23:41.318Z,37.95
2024-03-06T20:26:09.217Z,38.67
2024-03-06T20:28:35.838Z,37.13
2024-03-06T20:31:02.572Z,35.40
2024-03-06T20:33:31.349Z,40.15
2024-03-06T20:35:58.171Z,40.72
2024-03-06T20:38:25.947Z,42.25
2024-03-06T20:40:52.724Z,42.90
2024-03-06T20:43:20.818Z,48.92
2024-03-06T20:45:48.878Z,40.65
2024-03-06T20:48:15.563Z,45.05
2024-03-06T20:50:42.352Z,44.90
2024-03-06T20:53:09.102Z,44.15
2024-03-06T20:55:35.704Z,44.80
2024-03-06T20:58:02.997Z,49.75
2024-03-06T21:00:31.942Z,52.35
2024-03-06T21:02:58.676Z,55.60
2024-03-06T21:05:25.240Z,54.10
2024-03-06T21:07:51.756Z,54.25
2024-03-06T21:10:18.748Z,57.80
2024-03-06T21:12:49.371Z,57.03
2024-03-06T21:15:16.564Z,55.97
2024-03-06T21:17:43.666Z,62.97
2024-03-06T21:20:14.044Z,59.80
2024-03-06T21:22:44.393Z,60.08
2024-03-06T21:25:11.931Z,58.85
2024-03-06T21:27:39.284Z,52.22
2024-03-06T21:30:09.347Z,51.55
2024-03-06T21:32:36.440Z,48.38
2024-03-06T21:35:03.341Z,50.90
2024-03-06T21:37:30.855Z,52.58
2024-03-06T21:39:59.857Z,46.80
2024-03-06T21:42:26.869Z,45.80
2024-03-06T21:44:53.530Z,44.92
2024-03-06T21:47:20.214Z,51.33
2024-03-06T21:49:46.755Z,44.40
2024-03-06T21:52:13.423Z,42.72
2024-03-06T21:54:40.252Z,49.97
2024-03-06T21:57:08.586Z,56.42
2024-03-06T21:59:35.197Z,50.08
2024-03-06T22:02:02.076Z,40.10
2024-03-06T22:04:28.620Z,44.47
2024-03-06T22:06:55.113Z,43.92
2024-03-06T22:09:21.659Z,44.20
2024-03-06T22:11:48.321Z,38.03
2024-03-06T22:14:15.202Z,45.75
2024-03-06T22:16:41.764Z,51.20
2024-03-06T22:19:10.960Z,48.08
2024-03-06T22:21:37.566Z,46.70
2024-03-06T22:24:07.488Z,49.65
2024-03-06T22:26:34.067Z,45.42
2024-03-06T22:29:04.643Z,47.67
2024-03-06T22:31:32.336Z,52.83
2024-03-06T22:33:59.932Z,49.92
2024-03-06T22:36:38.292Z,49.22
2024-03-06T22:39:04.817Z,50.10
2024-03-06T22:41:31.481Z,49.28
2024-03-06T22:43:58.104Z,55.97
2024-03-06T22:46:24.645Z,52.63
2024-03-06T22:48:51.494Z,48.75
2024-03-06T22:51:19.374Z,54.03
2024-03-06T22:53:48.969Z,49.05
2024-03-06T22:56:20.460Z,55.70
2024-03-06T22:58:48.685Z,50.20
2024-03-06T23:01:15.397Z,49.90
2024-03-06T23:03:41.971Z,51.75
2024-03-06T23:06:09.128Z,51.03
2024-03-06T23:08:36.895Z,62.17
2024-03-06T23:11:04.631Z,54.75
2024-03-06T23:13:32.452Z,48.38
2024-03-06T23:15:59.111Z,50.25
2024-03-06T23:18:26.278Z,49.83
2024-03-06T23:20:52.938Z,55.53
2024-03-06T23:23:19.601Z,55.95
2024-03-06T23:25:46.209Z,55.25
2024-03-06T23:28:13.881Z,52.50
2024-03-06T23:30:42.398Z,51.35
2024-03-06T23:33:11.047Z,49.83
2024-03-06T23:35:37.820Z,48.92
2024-03-06T23:38:04.431Z,53.85
2024-03-06T23:40:31.991Z,51.38
2024-03-06T23:42:58.670Z,55.45
2024-03-06T23:45:27.729Z,51.95
2024-03-06T23:47:55.398Z,49.03
2024-03-06T23:50:35.113Z,54.30
2024-03-06T23:53:02.913Z,53.75
2024-03-06T23:55:32.134Z,54.63
2024-03-06T23:58:00.308Z,54.67
